Roll, Indiana
Current Conditions -  °F | °C
As of 10:53 AM on Tuesday 21 Oct 2014 (Local Time) from KMIE Reporting Station
Overcast Overcast  
Wind Chill: 52°   Ceiling: 5500
Heat Index: 52°   Visibility: 10mi
Dew Point: 42°   Wind: 13mph
Humidity: 69%   Direction: 340°NNW
Pressure: 30.06"   Gusts: NA
Location:  40.4568°N, 85.3505°W
Report Text: KMIE 211453Z 34011KT 10SM SCT022 OVC055 11/06 A3006 RMK AO2 SLP175 T01110056 51011
Loading
Personal Weather Stations






























Interactive Weather Map
Tropical Storm Tracking
New forecast layout! Learn more

10-Day Weather Forecast

Advertisements
Track Severe Weather on mobile